sensor_id;sensor_type;location;lat;lon;timestamp;P1;durP1;ratioP1;P2;durP2;ratioP2
56271;SDS011;42177;48.914;18.160;2023-03-16T00:01:34;24.1;;;14;;
56271;SDS011;42177;48.914;18.160;2023-03-16T00:06:34;24.1;;;14;;
56271;SDS011;42177;48.914;18.160;2023-03-16T00:11:34;22.9;;;14.4;;
56271;SDS011;42177;48.914;18.160;2023-03-16T00:16:34;22.9;;;14.4;;
56271;SDS011;42177;48.914;18.160;2023-03-16T00:21:34;24.8;;;14.1;;
56271;SDS011;42177;48.914;18.160;2023-03-16T00:26:34;24.8;;;14.1;;
56271;SDS011;42177;48.914;18.160;2023-03-16T00:31:34;24.4;;;13.7;;
56271;SDS011;42177;48.914;18.160;2023-03-16T00:36:34;24.4;;;13.7;;
56271;SDS011;42177;48.914;18.160;2023-03-16T00:41:34;24.1;;;13.9;;
56271;SDS011;42177;48.914;18.160;2023-03-16T00:46:34;24.1;;;13.9;;
56271;SDS011;42177;48.914;18.160;2023-03-16T00:51:34;23.2;;;13.7;;
56271;SDS011;42177;48.914;18.160;2023-03-16T00:56:34;23.2;;;13.7;;
56271;SDS011;42177;48.914;18.160;2023-03-16T01:01:34;26.4;;;15.7;;
56271;SDS011;42177;48.914;18.160;2023-03-16T01:06:34;26.4;;;15.7;;
56271;SDS011;42177;48.914;18.160;2023-03-16T01:11:34;26.8;;;16.1;;
56271;SDS011;42177;48.914;18.160;2023-03-16T01:16:34;26.8;;;16.1;;
56271;SDS011;42177;48.914;18.160;2023-03-16T01:21:34;25.8;;;15.6;;
56271;SDS011;42177;48.914;18.160;2023-03-16T01:26:34;25.8;;;15.6;;
56271;SDS011;42177;48.914;18.160;2023-03-16T01:31:34;24.2;;;14.4;;
56271;SDS011;42177;48.914;18.160;2023-03-16T01:36:34;24.2;;;14.4;;
56271;SDS011;42177;48.914;18.160;2023-03-16T01:41:34;25.2;;;13.8;;
56271;SDS011;42177;48.914;18.160;2023-03-16T01:46:34;25.2;;;13.8;;
56271;SDS011;42177;48.914;18.160;2023-03-16T01:51:35;24.5;;;15.3;;
56271;SDS011;42177;48.914;18.160;2023-03-16T01:56:35;24.5;;;15.3;;
56271;SDS011;42177;48.914;18.160;2023-03-16T02:01:34;23.5;;;14.3;;
56271;SDS011;42177;48.914;18.160;2023-03-16T02:06:34;23.5;;;14.3;;
56271;SDS011;42177;48.914;18.160;2023-03-16T02:11:34;24.4;;;14.2;;
56271;SDS011;42177;48.914;18.160;2023-03-16T02:16:34;24.4;;;14.2;;
56271;SDS011;42177;48.914;18.160;2023-03-16T02:21:34;24.9;;;15.2;;
56271;SDS011;42177;48.914;18.160;2023-03-16T02:26:36;24.9;;;15.2;;
56271;SDS011;42177;48.914;18.160;2023-03-16T02:31:34;24;;;15.1;;
56271;SDS011;42177;48.914;18.160;2023-03-16T02:36:34;24;;;15.1;;
56271;SDS011;42177;48.914;18.160;2023-03-16T02:41:34;22.6;;;14.7;;
56271;SDS011;42177;48.914;18.160;2023-03-16T02:46:34;22.6;;;14.7;;
56271;SDS011;42177;48.914;18.160;2023-03-16T02:51:34;20.6;;;13.2;;
56271;SDS011;42177;48.914;18.160;2023-03-16T02:56:34;20.6;;;13.2;;
56271;SDS011;42177;48.914;18.160;2023-03-16T03:01:34;21.1;;;13.3;;
56271;SDS011;42177;48.914;18.160;2023-03-16T03:06:34;21.1;;;13.3;;
56271;SDS011;42177;48.914;18.160;2023-03-16T03:11:34;22;;;12.1;;
56271;SDS011;42177;48.914;18.160;2023-03-16T03:16:34;22;;;12.1;;
56271;SDS011;42177;48.914;18.160;2023-03-16T03:21:34;19.7;;;11.4;;
56271;SDS011;42177;48.914;18.160;2023-03-16T03:26:34;19.7;;;11.4;;
56271;SDS011;42177;48.914;18.160;2023-03-16T03:31:34;19.9;;;11.9;;
56271;SDS011;42177;48.914;18.160;2023-03-16T03:36:34;19.9;;;11.9;;
56271;SDS011;42177;48.914;18.160;2023-03-16T03:41:34;21.8;;;13;;
56271;SDS011;42177;48.914;18.160;2023-03-16T03:46:34;21.8;;;13;;
56271;SDS011;42177;48.914;18.160;2023-03-16T03:51:34;24.4;;;13;;
56271;SDS011;42177;48.914;18.160;2023-03-16T03:56:34;24.4;;;13;;
56271;SDS011;42177;48.914;18.160;2023-03-16T04:01:34;22.5;;;13.1;;
56271;SDS011;42177;48.914;18.160;2023-03-16T04:06:34;22.5;;;13.1;;
56271;SDS011;42177;48.914;18.160;2023-03-16T04:11:34;24;;;14.4;;
56271;SDS011;42177;48.914;18.160;2023-03-16T04:16:34;24;;;14.4;;
56271;SDS011;42177;48.914;18.160;2023-03-16T04:21:34;24.3;;;15.3;;
56271;SDS011;42177;48.914;18.160;2023-03-16T04:26:34;24.3;;;15.3;;
56271;SDS011;42177;48.914;18.160;2023-03-16T04:31:34;26.2;;;15.6;;
56271;SDS011;42177;48.914;18.160;2023-03-16T04:36:34;26.2;;;15.6;;
56271;SDS011;42177;48.914;18.160;2023-03-16T04:41:34;24.3;;;14.2;;
56271;SDS011;42177;48.914;18.160;2023-03-16T04:46:34;24.3;;;14.2;;
56271;SDS011;42177;48.914;18.160;2023-03-16T04:51:34;24.5;;;14.5;;
56271;SDS011;42177;48.914;18.160;2023-03-16T04:56:34;24.5;;;14.5;;
56271;SDS011;42177;48.914;18.160;2023-03-16T05:01:34;24.6;;;14.5;;
56271;SDS011;42177;48.914;18.160;2023-03-16T05:06:34;24.6;;;14.5;;
56271;SDS011;42177;48.914;18.160;2023-03-16T05:11:34;26.3;;;14.2;;
56271;SDS011;42177;48.914;18.160;2023-03-16T05:16:34;26.3;;;14.2;;
56271;SDS011;42177;48.914;18.160;2023-03-16T05:21:34;29.6;;;14.1;;
56271;SDS011;42177;48.914;18.160;2023-03-16T05:26:34;29.6;;;14.1;;
56271;SDS011;42177;48.914;18.160;2023-03-16T05:31:34;25.3;;;13.6;;
56271;SDS011;42177;48.914;18.160;2023-03-16T05:36:34;25.3;;;13.6;;
56271;SDS011;42177;48.914;18.160;2023-03-16T05:41:34;23.7;;;13.6;;
56271;SDS011;42177;48.914;18.160;2023-03-16T05:46:34;23.7;;;13.6;;
56271;SDS011;42177;48.914;18.160;2023-03-16T05:51:34;22.5;;;13.3;;
56271;SDS011;42177;48.914;18.160;2023-03-16T05:56:34;22.5;;;13.3;;
56271;SDS011;42177;48.914;18.160;2023-03-16T06:01:34;18.9;;;12.1;;
56271;SDS011;42177;48.914;18.160;2023-03-16T06:06:34;18.9;;;12.1;;
56271;SDS011;42177;48.914;18.160;2023-03-16T06:11:34;18.7;;;11.1;;
56271;SDS011;42177;48.914;18.160;2023-03-16T06:16:34;18.7;;;11.1;;
56271;SDS011;42177;48.914;18.160;2023-03-16T06:21:34;17.5;;;10.6;;
56271;SDS011;42177;48.914;18.160;2023-03-16T06:26:34;17.5;;;10.6;;
56271;SDS011;42177;48.914;18.160;2023-03-16T06:31:34;17.8;;;11.1;;
56271;SDS011;42177;48.914;18.160;2023-03-16T06:36:34;17.8;;;11.1;;
56271;SDS011;42177;48.914;18.160;2023-03-16T06:41:34;20.5;;;10.2;;
56271;SDS011;42177;48.914;18.160;2023-03-16T06:46:34;20.5;;;10.2;;
56271;SDS011;42177;48.914;18.160;2023-03-16T06:51:34;18.3;;;10.9;;
56271;SDS011;42177;48.914;18.160;2023-03-16T06:56:34;18.3;;;10.9;;
56271;SDS011;42177;48.914;18.160;2023-03-16T07:01:34;11.8;;;7.6;;
56271;SDS011;42177;48.914;18.160;2023-03-16T07:06:34;11.8;;;7.6;;
56271;SDS011;42177;48.914;18.160;2023-03-16T07:11:34;14;;;7.7;;
56271;SDS011;42177;48.914;18.160;2023-03-16T07:16:34;14;;;7.7;;
56271;SDS011;42177;48.914;18.160;2023-03-16T07:21:34;10.1;;;6.7;;
56271;SDS011;42177;48.914;18.160;2023-03-16T07:26:34;10.1;;;6.7;;
56271;SDS011;42177;48.914;18.160;2023-03-16T07:31:34;13.6;;;7.4;;
56271;SDS011;42177;48.914;18.160;2023-03-16T07:36:34;13.6;;;7.4;;
56271;SDS011;42177;48.914;18.160;2023-03-16T07:41:34;10.6;;;7;;
56271;SDS011;42177;48.914;18.160;2023-03-16T07:46:34;10.6;;;7;;
56271;SDS011;42177;48.914;18.160;2023-03-16T07:51:34;10.7;;;6.7;;
56271;SDS011;42177;48.914;18.160;2023-03-16T07:56:34;10.7;;;6.7;;
56271;SDS011;42177;48.914;18.160;2023-03-16T08:01:34;11.6;;;6.4;;
56271;SDS011;42177;48.914;18.160;2023-03-16T08:06:34;11.6;;;6.4;;
56271;SDS011;42177;48.914;18.160;2023-03-16T08:11:34;11.4;;;6.4;;
56271;SDS011;42177;48.914;18.160;2023-03-16T08:16:34;11.4;;;6.4;;
56271;SDS011;42177;48.914;18.160;2023-03-16T08:21:34;10.9;;;6;;
56271;SDS011;42177;48.914;18.160;2023-03-16T08:26:34;10.9;;;6;;
56271;SDS011;42177;48.914;18.160;2023-03-16T08:31:34;10.5;;;6.2;;
56271;SDS011;42177;48.914;18.160;2023-03-16T08:36:34;10.5;;;6.2;;
56271;SDS011;42177;48.914;18.160;2023-03-16T08:41:34;10.3;;;6.1;;
56271;SDS011;42177;48.914;18.160;2023-03-16T08:46:34;10.3;;;6.1;;
56271;SDS011;42177;48.914;18.160;2023-03-16T08:51:34;8.4;;;4.2;;
56271;SDS011;42177;48.914;18.160;2023-03-16T08:56:34;8.4;;;4.2;;
56271;SDS011;42177;48.914;18.160;2023-03-16T09:01:34;9.2;;;5.4;;
56271;SDS011;42177;48.914;18.160;2023-03-16T09:06:34;9.2;;;5.4;;
56271;SDS011;42177;48.914;18.160;2023-03-16T09:11:34;6.5;;;4.3;;
56271;SDS011;42177;48.914;18.160;2023-03-16T09:16:34;6.5;;;4.3;;
56271;SDS011;42177;48.914;18.160;2023-03-16T09:21:34;7.1;;;3.8;;
56271;SDS011;42177;48.914;18.160;2023-03-16T09:26:34;7.1;;;3.8;;
56271;SDS011;42177;48.914;18.160;2023-03-16T09:31:34;7.2;;;4;;
56271;SDS011;42177;48.914;18.160;2023-03-16T09:36:34;7.2;;;4;;
56271;SDS011;42177;48.914;18.160;2023-03-16T09:41:37;6.8;;;4;;
56271;SDS011;42177;48.914;18.160;2023-03-16T09:46:34;6.8;;;4;;
56271;SDS011;42177;48.914;18.160;2023-03-16T09:51:35;8.3;;;4.1;;
56271;SDS011;42177;48.914;18.160;2023-03-16T09:56:34;8.3;;;4.1;;
56271;SDS011;42177;48.914;18.160;2023-03-16T10:01:36;6.8;;;3.9;;
56271;SDS011;42177;48.914;18.160;2023-03-16T10:06:34;6.8;;;3.9;;
56271;SDS011;42177;48.914;18.160;2023-03-16T10:11:34;6.3;;;3.6;;
56271;SDS011;42177;48.914;18.160;2023-03-16T10:16:36;6.3;;;3.6;;
56271;SDS011;42177;48.914;18.160;2023-03-16T10:21:36;6.4;;;4;;
56271;SDS011;42177;48.914;18.160;2023-03-16T10:26:35;6.4;;;4;;
56271;SDS011;42177;48.914;18.160;2023-03-16T10:31:34;9.1;;;4.1;;
56271;SDS011;42177;48.914;18.160;2023-03-16T10:36:34;9.1;;;4.1;;
56271;SDS011;42177;48.914;18.160;2023-03-16T10:41:34;6;;;4.3;;
56271;SDS011;42177;48.914;18.160;2023-03-16T10:46:35;6;;;4.3;;
56271;SDS011;42177;48.914;18.160;2023-03-16T10:51:34;5.7;;;3.9;;
56271;SDS011;42177;48.914;18.160;2023-03-16T10:56:34;5.7;;;3.9;;
56271;SDS011;42177;48.914;18.160;2023-03-16T11:01:34;7.7;;;3.9;;
56271;SDS011;42177;48.914;18.160;2023-03-16T11:06:34;7.7;;;3.9;;
56271;SDS011;42177;48.914;18.160;2023-03-16T11:11:34;8.2;;;4.3;;
56271;SDS011;42177;48.914;18.160;2023-03-16T11:16:36;8.2;;;4.3;;
56271;SDS011;42177;48.914;18.160;2023-03-16T11:21:36;7.4;;;4.3;;
56271;SDS011;42177;48.914;18.160;2023-03-16T11:26:34;7.4;;;4.3;;
56271;SDS011;42177;48.914;18.160;2023-03-16T11:31:38;10.3;;;3.9;;
56271;SDS011;42177;48.914;18.160;2023-03-16T11:36:37;10.3;;;3.9;;
56271;SDS011;42177;48.914;18.160;2023-03-16T11:41:36;5.2;;;3.2;;
56271;SDS011;42177;48.914;18.160;2023-03-16T11:46:35;5.2;;;3.2;;
56271;SDS011;42177;48.914;18.160;2023-03-16T11:51:34;6;;;3.1;;
56271;SDS011;42177;48.914;18.160;2023-03-16T11:56:35;6;;;3.1;;
56271;SDS011;42177;48.914;18.160;2023-03-16T12:01:38;6.5;;;3.5;;
56271;SDS011;42177;48.914;18.160;2023-03-16T12:06:37;6.5;;;3.5;;
56271;SDS011;42177;48.914;18.160;2023-03-16T12:11:34;3.9;;;2.8;;
56271;SDS011;42177;48.914;18.160;2023-03-16T12:16:34;3.9;;;2.8;;
56271;SDS011;42177;48.914;18.160;2023-03-16T12:21:35;5.1;;;3.1;;
56271;SDS011;42177;48.914;18.160;2023-03-16T12:26:34;5.1;;;3.1;;
56271;SDS011;42177;48.914;18.160;2023-03-16T12:31:35;4.1;;;2.7;;
56271;SDS011;42177;48.914;18.160;2023-03-16T12:36:40;4.1;;;2.7;;
56271;SDS011;42177;48.914;18.160;2023-03-16T12:41:35;4.7;;;2.6;;
56271;SDS011;42177;48.914;18.160;2023-03-16T12:46:37;4.7;;;2.6;;
56271;SDS011;42177;48.914;18.160;2023-03-16T12:51:34;6;;;2.7;;
56271;SDS011;42177;48.914;18.160;2023-03-16T12:56:34;6;;;2.7;;
56271;SDS011;42177;48.914;18.160;2023-03-16T13:01:36;5.3;;;2.9;;
56271;SDS011;42177;48.914;18.160;2023-03-16T13:06:34;5.3;;;2.9;;
56271;SDS011;42177;48.914;18.160;2023-03-16T13:11:42;4.3;;;2.9;;
56271;SDS011;42177;48.914;18.160;2023-03-16T13:16:34;4.3;;;2.9;;
56271;SDS011;42177;48.914;18.160;2023-03-16T13:21:34;7;;;2.9;;
56271;SDS011;42177;48.914;18.160;2023-03-16T13:26:37;7;;;2.9;;
56271;SDS011;42177;48.914;18.160;2023-03-16T13:31:34;6;;;2.5;;
56271;SDS011;42177;48.914;18.160;2023-03-16T13:36:34;6;;;2.5;;
56271;SDS011;42177;48.914;18.160;2023-03-16T13:41:34;3.4;;;2.3;;
56271;SDS011;42177;48.914;18.160;2023-03-16T13:46:34;3.4;;;2.3;;
56271;SDS011;42177;48.914;18.160;2023-03-16T13:51:35;5.1;;;2.9;;
56271;SDS011;42177;48.914;18.160;2023-03-16T13:56:34;5.1;;;2.9;;
56271;SDS011;42177;48.914;18.160;2023-03-16T14:01:34;5.5;;;3;;
56271;SDS011;42177;48.914;18.160;2023-03-16T14:06:34;5.5;;;3;;
56271;SDS011;42177;48.914;18.160;2023-03-16T14:31:35;5.4;;;3;;
56271;SDS011;42177;48.914;18.160;2023-03-16T14:36:35;5.4;;;3;;
56271;SDS011;42177;48.914;18.160;2023-03-16T14:41:34;3.9;;;2.5;;
56271;SDS011;42177;48.914;18.160;2023-03-16T14:51:34;4.5;;;2.4;;
56271;SDS011;42177;48.914;18.160;2023-03-16T14:56:34;4.5;;;2.4;;
56271;SDS011;42177;48.914;18.160;2023-03-16T15:01:34;7.6;;;3.2;;
56271;SDS011;42177;48.914;18.160;2023-03-16T15:06:34;7.6;;;3.2;;
56271;SDS011;42177;48.914;18.160;2023-03-16T15:11:34;5.8;;;3;;
56271;SDS011;42177;48.914;18.160;2023-03-16T15:16:34;5.8;;;3;;
56271;SDS011;42177;48.914;18.160;2023-03-16T15:21:34;5.7;;;2.9;;
56271;SDS011;42177;48.914;18.160;2023-03-16T15:26:34;5.7;;;2.9;;
56271;SDS011;42177;48.914;18.160;2023-03-16T15:31:34;6.4;;;3.2;;
56271;SDS011;42177;48.914;18.160;2023-03-16T15:36:34;6.4;;;3.2;;
56271;SDS011;42177;48.914;18.160;2023-03-16T15:41:34;10.8;;;3.7;;
56271;SDS011;42177;48.914;18.160;2023-03-16T15:46:34;10.8;;;3.7;;
56271;SDS011;42177;48.914;18.160;2023-03-16T15:51:34;3.7;;;2.8;;
56271;SDS011;42177;48.914;18.160;2023-03-16T15:56:35;3.7;;;2.8;;
56271;SDS011;42177;48.914;18.160;2023-03-16T16:01:35;7.2;;;3.4;;
56271;SDS011;42177;48.914;18.160;2023-03-16T16:06:34;7.2;;;3.4;;
56271;SDS011;42177;48.914;18.160;2023-03-16T16:11:34;5.9;;;2.5;;
56271;SDS011;42177;48.914;18.160;2023-03-16T16:16:34;5.9;;;2.5;;
56271;SDS011;42177;48.914;18.160;2023-03-16T16:21:34;4.7;;;2.8;;
56271;SDS011;42177;48.914;18.160;2023-03-16T16:26:34;4.7;;;2.8;;
56271;SDS011;42177;48.914;18.160;2023-03-16T16:31:34;5.3;;;2.6;;
56271;SDS011;42177;48.914;18.160;2023-03-16T16:36:34;5.3;;;2.6;;
56271;SDS011;42177;48.914;18.160;2023-03-16T16:41:34;4.4;;;2.6;;
56271;SDS011;42177;48.914;18.160;2023-03-16T16:46:35;4.4;;;2.6;;
56271;SDS011;42177;48.914;18.160;2023-03-16T16:51:34;4.1;;;2.3;;
56271;SDS011;42177;48.914;18.160;2023-03-16T16:56:34;4.1;;;2.3;;
56271;SDS011;42177;48.914;18.160;2023-03-16T17:01:34;7.5;;;2.8;;
56271;SDS011;42177;48.914;18.160;2023-03-16T17:06:34;7.5;;;2.8;;
56271;SDS011;42177;48.914;18.160;2023-03-16T17:11:34;5.7;;;2.9;;
56271;SDS011;42177;48.914;18.160;2023-03-16T17:16:35;5.7;;;2.9;;
56271;SDS011;42177;48.914;18.160;2023-03-16T17:21:34;5.8;;;2.6;;
56271;SDS011;42177;48.914;18.160;2023-03-16T17:26:35;5.8;;;2.6;;
56271;SDS011;42177;48.914;18.160;2023-03-16T17:31:35;6.5;;;3.2;;
56271;SDS011;42177;48.914;18.160;2023-03-16T17:36:34;6.5;;;3.2;;
56271;SDS011;42177;48.914;18.160;2023-03-16T17:41:34;4.7;;;2.8;;
56271;SDS011;42177;48.914;18.160;2023-03-16T17:46:34;4.7;;;2.8;;
56271;SDS011;42177;48.914;18.160;2023-03-16T17:51:34;12.8;;;6.6;;
56271;SDS011;42177;48.914;18.160;2023-03-16T17:56:34;12.8;;;6.6;;
56271;SDS011;42177;48.914;18.160;2023-03-16T18:01:34;20.9;;;12.8;;
56271;SDS011;42177;48.914;18.160;2023-03-16T18:06:34;20.9;;;12.8;;
56271;SDS011;42177;48.914;18.160;2023-03-16T18:11:34;9.8;;;5.9;;
56271;SDS011;42177;48.914;18.160;2023-03-16T18:16:34;9.8;;;5.9;;
56271;SDS011;42177;48.914;18.160;2023-03-16T18:21:34;8.8;;;5.7;;
56271;SDS011;42177;48.914;18.160;2023-03-16T18:26:34;8.8;;;5.7;;
56271;SDS011;42177;48.914;18.160;2023-03-16T18:31:34;11.9;;;6.4;;
56271;SDS011;42177;48.914;18.160;2023-03-16T18:36:34;11.9;;;6.4;;
56271;SDS011;42177;48.914;18.160;2023-03-16T18:41:34;10.2;;;6.8;;
56271;SDS011;42177;48.914;18.160;2023-03-16T18:46:34;10.2;;;6.8;;
56271;SDS011;42177;48.914;18.160;2023-03-16T18:51:34;14.3;;;7.5;;
56271;SDS011;42177;48.914;18.160;2023-03-16T18:56:34;14.3;;;7.5;;
56271;SDS011;42177;48.914;18.160;2023-03-16T19:01:34;16.5;;;11.1;;
56271;SDS011;42177;48.914;18.160;2023-03-16T19:06:34;16.5;;;11.1;;
56271;SDS011;42177;48.914;18.160;2023-03-16T19:11:35;17.1;;;10.7;;
56271;SDS011;42177;48.914;18.160;2023-03-16T19:16:34;17.1;;;10.7;;
56271;SDS011;42177;48.914;18.160;2023-03-16T19:21:34;18;;;11.5;;
56271;SDS011;42177;48.914;18.160;2023-03-16T19:26:34;18;;;11.5;;
56271;SDS011;42177;48.914;18.160;2023-03-16T19:31:34;19.4;;;12.6;;
56271;SDS011;42177;48.914;18.160;2023-03-16T19:36:34;19.4;;;12.6;;
56271;SDS011;42177;48.914;18.160;2023-03-16T19:41:34;18.4;;;10.6;;
56271;SDS011;42177;48.914;18.160;2023-03-16T19:46:34;18.4;;;10.6;;
56271;SDS011;42177;48.914;18.160;2023-03-16T19:51:34;20.3;;;12.9;;
56271;SDS011;42177;48.914;18.160;2023-03-16T19:56:34;20.3;;;12.9;;
56271;SDS011;42177;48.914;18.160;2023-03-16T20:01:34;19.9;;;12.9;;
56271;SDS011;42177;48.914;18.160;2023-03-16T20:06:34;19.9;;;12.9;;
56271;SDS011;42177;48.914;18.160;2023-03-16T20:11:34;20.1;;;12.2;;
56271;SDS011;42177;48.914;18.160;2023-03-16T20:16:34;20.1;;;12.2;;
56271;SDS011;42177;48.914;18.160;2023-03-16T20:21:34;20.2;;;11.8;;
56271;SDS011;42177;48.914;18.160;2023-03-16T20:26:34;20.2;;;11.8;;
56271;SDS011;42177;48.914;18.160;2023-03-16T20:31:34;19.8;;;10.9;;
56271;SDS011;42177;48.914;18.160;2023-03-16T20:36:34;19.8;;;10.9;;
56271;SDS011;42177;48.914;18.160;2023-03-16T20:41:34;19.7;;;11;;
56271;SDS011;42177;48.914;18.160;2023-03-16T20:46:34;19.7;;;11;;
56271;SDS011;42177;48.914;18.160;2023-03-16T20:51:34;17.1;;;10.9;;
56271;SDS011;42177;48.914;18.160;2023-03-16T20:56:34;17.1;;;10.9;;
56271;SDS011;42177;48.914;18.160;2023-03-16T21:01:34;16.3;;;10.3;;
56271;SDS011;42177;48.914;18.160;2023-03-16T21:06:34;16.3;;;10.3;;
56271;SDS011;42177;48.914;18.160;2023-03-16T21:11:35;18.7;;;11.3;;
56271;SDS011;42177;48.914;18.160;2023-03-16T21:16:34;18.7;;;11.3;;
56271;SDS011;42177;48.914;18.160;2023-03-16T21:21:34;18.2;;;12;;
56271;SDS011;42177;48.914;18.160;2023-03-16T21:26:34;18.2;;;12;;
56271;SDS011;42177;48.914;18.160;2023-03-16T21:31:34;20.5;;;13.3;;
56271;SDS011;42177;48.914;18.160;2023-03-16T21:36:34;20.5;;;13.3;;
56271;SDS011;42177;48.914;18.160;2023-03-16T21:41:34;21.6;;;13.4;;
56271;SDS011;42177;48.914;18.160;2023-03-16T21:46:34;21.6;;;13.4;;
56271;SDS011;42177;48.914;18.160;2023-03-16T21:51:34;18.6;;;11.7;;
56271;SDS011;42177;48.914;18.160;2023-03-16T21:56:34;18.6;;;11.7;;
56271;SDS011;42177;48.914;18.160;2023-03-16T22:01:34;13.6;;;9.2;;
56271;SDS011;42177;48.914;18.160;2023-03-16T22:06:34;13.6;;;9.2;;
56271;SDS011;42177;48.914;18.160;2023-03-16T22:11:34;19.5;;;11.1;;
56271;SDS011;42177;48.914;18.160;2023-03-16T22:16:35;19.5;;;11.1;;
56271;SDS011;42177;48.914;18.160;2023-03-16T22:21:34;18.9;;;12;;
56271;SDS011;42177;48.914;18.160;2023-03-16T22:26:34;18.9;;;12;;
56271;SDS011;42177;48.914;18.160;2023-03-16T22:31:35;22;;;14.2;;
56271;SDS011;42177;48.914;18.160;2023-03-16T22:36:34;22;;;14.2;;
56271;SDS011;42177;48.914;18.160;2023-03-16T22:41:34;21;;;12.5;;
56271;SDS011;42177;48.914;18.160;2023-03-16T22:46:34;21;;;12.5;;
56271;SDS011;42177;48.914;18.160;2023-03-16T22:51:34;25.7;;;14;;
56271;SDS011;42177;48.914;18.160;2023-03-16T22:56:34;25.7;;;14;;
56271;SDS011;42177;48.914;18.160;2023-03-16T23:01:34;22.4;;;14.3;;
56271;SDS011;42177;48.914;18.160;2023-03-16T23:06:34;22.4;;;14.3;;
56271;SDS011;42177;48.914;18.160;2023-03-16T23:11:34;22.7;;;12.6;;
56271;SDS011;42177;48.914;18.160;2023-03-16T23:16:34;22.7;;;12.6;;
56271;SDS011;42177;48.914;18.160;2023-03-16T23:21:34;22.6;;;13.4;;
56271;SDS011;42177;48.914;18.160;2023-03-16T23:26:34;22.6;;;13.4;;
56271;SDS011;42177;48.914;18.160;2023-03-16T23:31:34;25.4;;;14.7;;
56271;SDS011;42177;48.914;18.160;2023-03-16T23:36:34;25.4;;;14.7;;
56271;SDS011;42177;48.914;18.160;2023-03-16T23:41:34;24.1;;;14.1;;
56271;SDS011;42177;48.914;18.160;2023-03-16T23:46:34;24.1;;;14.1;;
56271;SDS011;42177;48.914;18.160;2023-03-16T23:51:34;23.6;;;13.3;;
56271;SDS011;42177;48.914;18.160;2023-03-16T23:56:34;23.6;;;13.3;;
